Time;durP1;ratioP1;P1;durP2;ratioP2;P2;SDS_P1;SDS_P2;PMS_P1;PMS_P2;Temp;Humidity;BMP_temperature;BMP_pressure;BME280_temperature;BME280_humidity;BME280_pressure;Samples;Min_cycle;Max_cycle;Signal;HPM_P1;HPM_P2
2021/04/26 05:32:31;;;;;;;;;;;;;;;2.12;67.32;100615.28;1693016;83;25568;-65
2021/04/26 05:34:57;;;;;;;11.55;7.60;;;;;;;2.26;67.10;100614.95;1694500;83;25729;-63
2021/04/26 05:37:24;;;;;;;15.40;7.87;;;;;;;2.41;66.76;100619.16;1673739;85;25653;-63
2021/04/26 05:39:50;;;;;;;15.20;7.42;;;;;;;2.55;66.31;100620.41;1652730;85;25641;-62
2021/04/26 05:42:18;;;;;;;11.95;6.67;;;;;;;2.72;66.19;100621.69;1673858;85;25638;-63
2021/04/26 05:44:44;;;;;;;11.38;6.55;;;;;;;2.90;65.73;100615.24;1673893;85;25628;-64
2021/04/26 05:47:11;;;;;;;15.58;7.22;;;;;;;3.07;65.21;100619.71;1673946;85;25729;-63
2021/04/26 05:49:39;;;;;;;12.03;7.25;;;;;;;3.25;64.84;100615.88;1673829;85;25642;-63
2021/04/26 05:52:06;;;;;;;12.25;7.20;;;;;;;3.41;64.38;100614.17;1673904;85;25580;-62
2021/04/26 05:54:32;;;;;;;12.53;6.85;;;;;;;3.60;63.83;100607.92;1699336;84;26037;-62
2021/04/26 05:56:59;;;;;;;15.45;6.65;;;;;;;3.74;63.07;100611.78;1700305;83;25560;-63
2021/04/26 05:59:25;;;;;;;11.25;6.58;;;;;;;3.87;62.67;100618.58;1700389;83;28004;-62
2021/04/26 06:01:52;;;;;;;14.45;6.72;;;;;;;4.01;62.27;100617.06;1700178;84;25729;-65
2021/04/26 06:04:19;;;;;;;13.65;7.53;;;;;;;4.21;62.35;100611.59;1700084;83;25713;-65
2021/04/26 06:06:45;;;;;;;14.53;8.83;;;;;;;4.43;62.15;100612.25;1696785;83;25964;-64
2021/04/26 06:09:11;;;;;;;14.25;7.00;;;;;;;4.67;61.78;100619.87;1670088;85;25621;-64
2021/04/26 06:11:38;;;;;;;11.15;7.08;;;;;;;4.86;61.21;100621.01;1669313;85;25909;-67
2021/04/26 06:14:04;;;;;;;10.38;5.95;;;;;;;5.05;60.93;100617.31;1680942;84;25537;-65
2021/04/26 06:16:31;;;;;;;9.98;5.50;;;;;;;5.30;60.89;100619.00;1700597;84;25582;-64
2021/04/26 06:18:57;;;;;;;10.48;5.78;;;;;;;5.51;60.51;100616.59;1700736;83;25583;-63
2021/04/26 06:21:24;;;;;;;9.08;5.17;;;;;;;5.73;59.99;100628.97;1680780;84;25688;-65
2021/04/26 06:23:51;;;;;;;10.18;5.17;;;;;;;5.95;59.48;100621.44;1682481;84;25765;-64
2021/04/26 06:26:18;;;;;;;8.70;4.78;;;;;;;6.15;59.29;100627.91;1673695;85;25596;-65
2021/04/26 06:28:45;;;;;;;10.82;5.50;;;;;;;6.42;58.87;100625.42;1673892;85;25760;-64
2021/04/26 06:31:14;;;;;;;7.67;4.22;;;;;;;6.72;58.40;100628.04;1686729;82;25705;-64
2021/04/26 06:33:41;;;;;;;10.20;5.00;;;;;;;6.95;57.22;100629.82;1736342;82;25624;-64
2021/04/26 06:36:07;;;;;;;8.40;4.05;;;;;;;7.17;56.73;100634.00;1736142;82;25716;-63
2021/04/26 06:38:34;;;;;;;7.65;3.70;;;;;;;7.45;56.75;100634.64;1730162;81;25655;-65
2021/04/26 06:41:01;;;;;;;6.30;3.47;;;;;;;7.70;55.88;100628.83;1713924;82;25644;-64
2021/04/26 06:43:27;;;;;;;4.83;2.40;;;;;;;7.93;54.83;100629.17;1698827;82;25666;-65
2021/04/26 06:45:54;;;;;;;6.05;3.15;;;;;;;8.18;54.46;100630.84;1711764;82;25616;-64
2021/04/26 06:48:23;;;;;;;4.08;2.65;;;;;;;8.50;53.96;100637.00;1707327;82;25782;-63
2021/04/26 06:50:51;;;;;;;6.50;3.05;;;;;;;8.76;52.78;100628.62;1738504;82;25542;-64
2021/04/26 06:53:20;;;;;;;4.75;2.65;;;;;;;9.07;52.52;100631.72;1738603;82;25666;-66
2021/04/26 06:55:47;;;;;;;4.37;2.65;;;;;;;9.39;51.35;100631.56;1738439;81;25627;-64
2021/04/26 06:58:14;;;;;;;3.15;1.92;;;;;;;9.29;49.91;100630.36;1738536;82;25641;-64
2021/04/26 07:00:41;;;;;;;7.12;2.77;;;;;;;9.05;49.52;100629.86;1738511;82;25896;-65
2021/04/26 07:03:07;;;;;;;6.78;2.72;;;;;;;8.87;49.08;100634.68;1738120;82;25629;-65
2021/04/26 07:05:34;;;;;;;4.33;2.70;;;;;;;8.84;49.14;100632.03;1737744;82;26153;-64
2021/04/26 07:08:01;;;;;;;3.08;1.50;;;;;;;9.10;48.91;100632.50;1738467;81;25560;-65
2021/04/26 07:10:28;;;;;;;2.90;1.70;;;;;;;8.90;45.34;100625.46;1738482;82;25612;-63
2021/04/26 07:12:55;;;;;;;2.72;1.27;;;;;;;8.55;46.36;100638.30;1738594;81;27009;-64
2021/04/26 07:15:22;;;;;;;3.70;1.80;;;;;;;8.31;46.76;100634.21;1738387;82;25648;-64
2021/04/26 07:17:49;;;;;;;2.70;1.52;;;;;;;8.16;46.22;100635.16;1738256;81;25584;-64
2021/04/26 07:20:16;;;;;;;4.42;1.32;;;;;;;8.02;46.53;100641.75;1737972;82;25600;-64
2021/04/26 07:22:43;;;;;;;1.70;1.30;;;;;;;7.96;46.66;100638.04;1706701;81;26123;-63
2021/04/26 07:25:11;;;;;;;3.00;1.15;;;;;;;7.89;46.89;100637.02;1696949;82;25807;-64
2021/04/26 07:27:40;;;;;;;1.82;1.40;;;;;;;7.74;46.74;100633.89;1672193;84;25628;-63
2021/04/26 07:30:09;;;;;;;2.95;1.30;;;;;;;7.83;47.28;100628.19;1691418;84;25759;-63
2021/04/26 07:32:36;;;;;;;2.67;1.17;;;;;;;8.33;47.72;100632.03;1666191;84;25672;-65
2021/04/26 07:35:06;;;;;;;2.00;1.10;;;;;;;8.98;47.65;100625.38;1739689;81;25624;-64
2021/04/26 07:37:33;;;;;;;1.10;0.88;;;;;;;9.64;46.90;100633.08;1739765;82;26822;-64
2021/04/26 07:40:00;;;;;;;3.15;1.25;;;;;;;10.24;46.49;100623.44;1739313;81;25526;-64
2021/04/26 07:42:28;;;;;;;1.90;1.10;;;;;;;10.58;45.23;100628.48;1739505;81;25615;-64
2021/04/26 07:44:55;;;;;;;1.52;1.22;;;;;;;10.54;44.23;100632.09;1724065;82;25584;-65
2021/04/26 07:47:22;;;;;;;1.92;1.30;;;;;;;10.25;43.17;100630.45;1729155;83;25615;-64
2021/04/26 07:49:49;;;;;;;1.67;1.30;;;;;;;9.97;42.66;100625.53;1712821;83;25785;-64
2021/04/26 07:52:16;;;;;;;1.87;1.27;;;;;;;9.92;42.18;100622.36;1701977;83;25617;-64
2021/04/26 07:54:43;;;;;;;4.60;1.67;;;;;;;10.09;42.77;100626.64;1698361;83;25610;-64
2021/04/26 07:57:10;;;;;;;4.40;1.42;;;;;;;10.41;41.80;100626.38;1698281;84;25607;-64
2021/04/26 07:59:37;;;;;;;3.25;1.37;;;;;;;10.62;41.53;100621.92;1698089;84;25580;-65
2021/04/26 08:02:05;;;;;;;1.80;1.02;;;;;;;10.54;41.19;100614.50;1706479;83;26450;-65
2021/04/26 08:04:31;;;;;;;2.87;1.10;;;;;;;10.86;41.24;100619.00;1703973;83;25780;-66
2021/04/26 08:06:59;;;;;;;2.05;1.25;;;;;;;11.32;40.48;100617.20;1704924;83;25704;-54
2021/04/26 08:09:26;;;;;;;2.45;1.02;;;;;;;11.92;40.77;100616.09;1759375;80;25611;-54
2021/04/26 08:11:53;;;;;;;1.65;1.20;;;;;;;12.37;39.58;100607.84;1750883;81;25564;-53
2021/04/26 08:14:21;;;;;;;1.85;1.00;;;;;;;12.69;38.61;100607.23;1759391;81;25753;-52
2021/04/26 08:16:47;;;;;;;2.77;1.00;;;;;;;12.52;37.90;100618.27;1759314;80;25600;-52
2021/04/26 08:19:16;;;;;;;4.55;1.30;;;;;;;12.48;37.30;100616.49;1759316;80;25494;-52
2021/04/26 08:21:43;;;;;;;1.50;1.10;;;;;;;12.44;36.66;100617.67;1759368;81;26065;-53
2021/04/26 08:24:10;;;;;;;2.27;1.10;;;;;;;12.09;35.99;100620.24;1733055;81;25574;-55
2021/04/26 08:26:36;;;;;;;1.55;0.90;;;;;;;11.72;36.34;100621.42;1728854;82;25714;-52
2021/04/26 08:29:04;;;;;;;3.22;1.10;;;;;;;11.83;36.80;100620.05;1727391;81;25640;-54
2021/04/26 08:31:31;;;;;;;2.02;0.90;;;;;;;11.57;35.69;100615.81;1706068;82;25588;-53
2021/04/26 08:33:58;;;;;;;2.55;1.10;;;;;;;11.31;36.09;100615.05;1706057;84;25545;-53
2021/04/26 08:36:25;;;;;;;2.00;1.05;;;;;;;11.13;35.91;100618.70;1706013;84;25629;-53
2021/04/26 08:38:51;;;;;;;1.65;1.15;;;;;;;10.79;35.79;100617.26;1706071;84;25703;-52
2021/04/26 08:41:19;;;;;;;3.52;0.75;;;;;;;11.07;36.06;100619.38;1708207;82;25604;-52
2021/04/26 08:43:47;;;;;;;1.70;1.02;;;;;;;10.93;34.69;100609.12;1701286;83;25626;-53
2021/04/26 08:46:14;;;;;;;3.08;0.82;;;;;;;10.67;35.08;100611.56;1705245;83;25738;-51
2021/04/26 08:48:41;;;;;;;2.25;1.00;;;;;;;10.68;35.38;100605.85;1707537;82;25695;-53
2021/04/26 08:51:09;;;;;;;1.57;1.05;;;;;;;11.18;36.04;100606.41;1702846;82;25784;-53
2021/04/26 08:53:36;;;;;;;1.52;0.85;;;;;;;11.83;35.78;100598.92;1705168;84;25597;-53
2021/04/26 08:56:07;;;;;;;1.25;0.93;;;;;;;12.48;35.68;100600.21;1705460;84;25761;-53
2021/04/26 08:58:35;;;;;;;2.47;1.12;;;;;;;12.58;34.40;100605.38;1705449;82;25691;-53
2021/04/26 09:01:03;;;;;;;1.87;1.10;;;;;;;12.31;33.86;100594.19;1719561;82;26188;-57
2021/04/26 09:03:37;;;;;;;1.42;1.15;;;;;;;12.31;34.21;100594.98;1693521;84;25919;-52
2021/04/26 09:06:12;;;;;;;2.45;1.10;;;;;;;12.22;32.44;100593.34;1720991;82;25613;-52
2021/04/26 09:08:39;;;;;;;0.98;0.82;;;;;;;12.08;32.96;100592.08;1738839;82;25529;-52
2021/04/26 09:11:09;;;;;;;1.45;1.05;;;;;;;12.08;33.07;100598.86;1738793;82;25657;-53
2021/04/26 09:13:41;;;;;;;2.65;1.20;;;;;;;11.77;32.76;100594.98;1683254;83;25608;-52
2021/04/26 09:16:26;;;;;;;2.00;0.90;;;;;;;11.49;32.72;100597.05;1700562;84;25920;-52
2021/04/26 09:19:06;;;;;;;3.98;1.30;;;;;;;11.20;32.80;100598.78;1694937;84;25633;-51
2021/04/26 09:21:35;;;;;;;3.52;1.02;;;;;;;10.88;32.82;100592.45;1694185;84;25586;-52
2021/04/26 09:24:36;;;;;;;2.05;1.02;;;;;;;10.98;33.62;100595.47;1694258;84;25748;-53
2021/04/26 09:27:11;;;;;;;2.42;0.80;;;;;;;11.85;33.84;100581.26;1693827;84;26208;-54
2021/04/26 09:29:40;;;;;;;4.22;1.62;;;;;;;12.93;33.58;100585.66;1694166;84;25713;-54
2021/04/26 09:32:20;;;;;;;2.60;1.20;;;;;;;13.22;32.26;100582.31;1684023;82;25630;-54
2021/04/26 09:34:52;;;;;;;;;;;;;;;13.19;31.38;100588.38;1709389;82;25640;-55
2021/04/26 09:37:26;;;;;;;1.27;1.00;;;;;;;12.69;30.87;100591.75;1710812;82;25634;-50
2021/04/26 09:40:15;;;;;;;2.83;1.07;;;;;;;11.80;30.82;100586.81;1705134;83;25643;-53
2021/04/26 09:42:52;;;;;;;2.72;1.30;;;;;;;11.15;31.39;100586.71;1714588;83;26337;-51
2021/04/26 09:45:44;;;;;;;4.83;1.30;;;;;;;10.49;31.99;100582.97;1727262;83;25803;-52
2021/04/26 09:48:19;;;;;;;3.15;1.47;;;;;;;10.11;32.89;100584.45;1727498;83;25636;-53
2021/04/26 09:51:00;;;;;;;2.65;1.20;;;;;;;10.12;33.95;100577.96;1709741;82;25619;-52
2021/04/26 09:53:32;;;;;;;1.85;1.47;;;;;;;10.92;35.10;100577.77;1749124;82;25633;-53
2021/04/26 09:56:13;;;;;;;1.27;1.12;;;;;;;12.03;34.06;100571.89;1741243;82;25743;-53
2021/04/26 09:58:43;;;;;;;1.77;0.90;;;;;;;12.60;33.07;100570.58;1741232;82;25774;-52
2021/04/26 10:01:10;;;;;;;4.45;1.22;;;;;;;12.56;31.68;100568.81;1741322;82;25564;-52
2021/04/26 10:03:38;;;;;;;1.67;1.17;;;;;;;12.26;30.62;100568.53;1741142;81;25540;-51
2021/04/26 10:06:05;;;;;;;2.08;1.20;;;;;;;11.65;30.23;100565.52;1749491;82;25538;-53
2021/04/26 10:08:32;;;;;;;3.75;1.35;;;;;;;11.23;31.10;100572.45;1741291;82;25702;-51
2021/04/26 10:10:59;;;;;;;1.92;1.30;;;;;;;10.90;30.80;100568.59;1749391;81;25550;-52
2021/04/26 10:13:27;;;;;;;2.08;1.40;;;;;;;10.54;31.49;100565.82;1741166;82;25790;-53
2021/04/26 10:16:02;;;;;;;1.40;1.00;;;;;;;10.65;32.67;100566.66;1742903;81;25682;-52
2021/04/26 10:18:39;;;;;;;2.27;1.00;;;;;;;11.57;32.27;100566.48;1713269;83;25626;-51
2021/04/26 10:21:26;;;;;;;3.80;1.00;;;;;;;12.34;31.63;100560.99;1698351;84;25778;-53
2021/04/26 10:23:54;;;;;;;1.15;0.95;;;;;;;12.77;31.66;100556.79;1711730;83;25547;-53
2021/04/26 10:26:58;;;;;;;2.50;1.10;;;;;;;13.42;30.10;100557.24;1719568;82;25607;-53
2021/04/26 10:29:34;;;;;;;3.02;1.00;;;;;;;13.85;30.18;100552.84;1741122;82;25543;-54
2021/04/26 10:32:14;;;;;;;1.98;0.98;;;;;;;14.16;28.70;100549.05;1715808;82;26208;-52
2021/04/26 10:34:50;;;;;;;1.52;1.05;;;;;;;14.29;29.35;100539.08;1696412;83;25730;-51
2021/04/26 10:37:24;;;;;;;4.10;0.90;;;;;;;14.55;28.21;100556.62;1696201;84;25625;-53
2021/04/26 10:40:03;;;;;;;2.27;0.95;;;;;;;14.32;27.37;100545.20;1696449;82;25640;-54
2021/04/26 10:42:49;;;;;;;1.30;0.70;;;;;;;13.84;27.27;100551.23;1696961;83;25681;-53
2021/04/26 10:45:24;;;;;;;1.22;0.80;;;;;;;13.63;27.00;100544.34;1693752;82;25619;-53
2021/04/26 10:48:09;;;;;;;2.95;0.72;;;;;;;13.68;27.34;100543.38;1724071;82;25924;-53
2021/04/26 10:50:43;;;;;;;0.78;0.70;;;;;;;13.86;27.93;100542.75;1709125;83;26316;-51
2021/04/26 10:53:11;;;;;;;1.87;1.17;;;;;;;14.18;27.47;100540.81;1709123;83;25388;-51
2021/04/26 10:55:45;;;;;;;1.07;0.80;;;;;;;14.45;26.84;100537.95;1709321;83;25706;-53
2021/04/26 10:58:29;;;;;;;3.62;0.80;;;;;;;14.09;26.39;100541.39;1709279;83;26135;-51
2021/04/26 11:00:55;;;;;;;2.15;1.20;;;;;;;13.54;26.24;100572.11;1709635;82;26208;-50
2021/04/26 11:03:31;;;;;;;2.22;1.15;;;;;;;12.56;26.72;100558.74;1709539;83;25641;-54
2021/04/26 11:06:10;;;;;;;2.15;0.82;;;;;;;11.78;28.14;100549.70;1709678;83;25600;-52
2021/04/26 11:08:42;;;;;;;2.52;1.17;;;;;;;11.34;28.87;100539.15;1677359;83;25601;-50
2021/04/26 11:11:20;;;;;;;1.22;0.90;;;;;;;11.49;30.61;100535.27;1709734;83;25592;-51
2021/04/26 11:13:57;;;;;;;1.60;0.90;;;;;;;12.30;29.59;100532.34;1707093;82;28071;-52
2021/04/26 11:16:29;;;;;;;3.20;1.10;;;;;;;13.23;30.31;100524.95;1699472;83;25566;-51
2021/04/26 11:19:07;;;;;;;2.98;1.00;;;;;;;14.08;28.80;100522.67;1685617;82;25598;-53
2021/04/26 11:21:49;;;;;;;4.25;1.05;;;;;;;14.22;28.08;100527.34;1695213;83;25569;-54
2021/04/26 11:24:30;;;;;;;2.83;1.45;;;;;;;13.83;28.06;100536.84;1652137;85;25596;-53
2021/04/26 11:27:13;;;;;;;1.90;1.10;;;;;;;13.37;28.29;100560.13;1675534;85;25833;-53
2021/04/26 11:29:52;;;;;;;2.17;1.22;;;;;;;12.81;28.69;100550.42;1663851;85;25809;-53
2021/04/26 11:32:19;;;;;;;1.82;1.10;;;;;;;12.52;29.51;100551.80;1675114;85;25600;-53
2021/04/26 11:34:59;;;;;;;1.32;0.80;;;;;;;12.33;30.08;100547.20;1675333;85;26225;-53
2021/04/26 11:37:25;;;;;;;2.15;1.17;;;;;;;12.19;30.21;100554.64;1674862;85;25566;-53
2021/04/26 11:39:53;;;;;;;1.87;1.15;;;;;;;12.04;30.21;100544.47;1675395;85;26675;-53
2021/04/26 11:42:26;;;;;;;1.87;1.05;;;;;;;11.91;30.37;100538.58;1675297;85;25619;-53
2021/04/26 11:44:54;;;;;;;3.33;1.15;;;;;;;11.89;30.82;100534.80;1676256;84;25564;-53
2021/04/26 11:47:23;;;;;;;2.33;1.10;;;;;;;12.16;30.76;100539.81;1700464;83;25632;-53
2021/04/26 11:50:00;;;;;;;3.33;1.10;;;;;;;12.55;30.86;100534.64;1701493;84;28145;-53
2021/04/26 11:52:29;;;;;;;5.03;1.20;;;;;;;12.83;30.34;100532.45;1712023;82;25810;-52
2021/04/26 11:55:10;;;;;;;1.30;1.20;;;;;;;12.92;29.42;100519.67;1709131;81;25606;-53
2021/04/26 11:57:56;;;;;;;3.77;1.10;;;;;;;12.52;28.48;100530.09;1695520;84;25674;-52
2021/04/26 12:00:28;;;;;;;3.62;1.37;;;;;;;12.00;28.96;100525.85;1695733;84;43681;-52
2021/04/26 12:03:09;;;;;;;4.17;1.67;;;;;;;11.62;29.10;100524.92;1696090;84;26166;-53
2021/04/26 12:05:36;;;;;;;4.78;2.65;;;;;;;11.39;29.52;100529.55;1689042;84;25956;-52
2021/04/26 12:08:04;;;;;;;2.65;1.62;;;;;;;11.62;30.62;100527.64;1703618;83;25571;-56
2021/04/26 12:10:39;;;;;;;2.33;1.52;;;;;;;12.24;30.87;100524.66;1703703;84;25661;-52
2021/04/26 12:13:03;;;;;;;2.15;1.47;;;;;;;12.81;30.45;100521.13;1703106;84;25560;-51
2021/04/26 12:15:32;;;;;;;5.35;1.77;;;;;;;13.37;30.43;100510.44;1703740;84;25577;-53
2021/04/26 12:18:01;;;;;;;2.33;1.75;;;;;;;14.06;30.29;100505.32;1703851;84;25767;-53
2021/04/26 12:20:36;;;;;;;6.95;1.72;;;;;;;14.53;29.84;100499.00;1702212;82;25626;-53
2021/04/26 12:23:19;;;;;;;4.60;1.52;;;;;;;14.36;28.38;100491.17;1713928;82;25699;-53
2021/04/26 12:25:54;;;;;;;2.77;1.85;;;;;;;14.42;29.07;100507.30;1881818;76;34727;-53
2021/04/26 12:28:21;;;;;;;2.52;1.95;;;;;;;14.45;28.50;100498.48;1852941;77;26235;-52
2021/04/26 12:30:53;;;;;;;2.85;2.00;;;;;;;14.25;28.87;100494.05;1852881;77;25672;-54
2021/04/26 12:33:24;;;;;;;2.42;1.50;;;;;;;14.06;27.78;100505.89;1852792;77;25532;-56
2021/04/26 12:35:52;;;;;;;6.90;2.12;;;;;;;13.83;29.24;100496.64;1779444;80;25575;-55
2021/04/26 12:38:29;;;;;;;2.55;2.05;;;;;;;13.71;28.98;100487.02;1799506;79;25645;-55
2021/04/26 12:40:58;;;;;;;4.47;1.70;;;;;;;13.60;29.20;100480.57;1783488;80;25581;-54
2021/04/26 12:43:36;;;;;;;5.17;2.37;;;;;;;13.66;29.50;100470.31;1781999;79;28097;-54
2021/04/26 12:46:09;;;;;;;3.47;1.90;;;;;;;13.83;27.16;100469.45;1767880;81;26267;-54
2021/04/26 12:48:40;;;;;;;2.42;1.52;;;;;;;13.65;28.10;100470.06;1778239;80;25703;-56
2021/04/26 12:51:08;;;;;;;3.45;1.30;;;;;;;13.50;27.27;100463.80;1778298;80;25593;-54
2021/04/26 12:53:41;;;;;;;3.20;1.30;;;;;;;13.21;27.57;100457.13;1749792;80;25569;-54
2021/04/26 12:56:16;;;;;;;3.40;1.30;;;;;;;12.83;28.02;100455.88;1765656;80;25690;-56
2021/04/26 12:58:47;;;;;;;2.02;1.50;;;;;;;12.64;28.74;100469.77;1744188;81;25707;-59
2021/04/26 13:01:25;;;;;;;2.37;1.52;;;;;;;12.39;30.32;100470.55;1738443;81;25683;-61
2021/04/26 13:04:00;;;;;;;1.65;1.27;;;;;;;12.01;30.25;100451.55;1679356;84;25693;-62
2021/04/26 13:06:43;;;;;;;8.65;1.40;;;;;;;12.11;32.16;100458.61;1836580;76;34763;-61
2021/04/26 13:09:09;;;;;;;3.72;1.60;;;;;;;11.98;31.42;100459.52;1803212;79;25683;-61
2021/04/26 13:11:40;;;;;;;3.83;1.37;;;;;;;11.86;31.53;100451.95;1803764;78;25794;-62
2021/04/26 13:14:23;;;;;;;1.85;1.40;;;;;;;12.02;32.11;100436.90;1803957;78;25732;-64
2021/04/26 13:17:08;;;;;;;2.35;1.50;;;;;;;12.39;33.02;100437.42;1804117;78;25547;-63
2021/04/26 13:19:39;;;;;;;2.33;1.40;;;;;;;12.63;32.12;100436.99;1805978;78;25201;-62
2021/04/26 13:22:27;;;;;;;4.40;1.90;;;;;;;12.76;32.04;100430.36;1806222;78;25568;-65
2021/04/26 13:25:02;;;;;;;2.22;1.40;;;;;;;12.60;30.86;100443.05;1808453;78;26585;-64
2021/04/26 13:27:45;;;;;;;4.70;1.37;;;;;;;12.15;29.50;100433.80;1803601;78;25654;-63
2021/04/26 13:30:15;;;;;;;4.87;1.70;;;;;;;11.63;30.40;100449.86;1807096;78;25727;-64
2021/04/26 13:32:44;;;;;;;4.47;1.98;;;;;;;11.15;31.58;100447.28;1770113;79;25624;-64
2021/04/26 13:35:12;;;;;;;2.27;1.80;;;;;;;10.68;32.61;100447.59;1801024;78;25691;-64
2021/04/26 13:37:42;;;;;;;2.75;1.95;;;;;;;10.33;33.56;100455.94;1773180;78;25767;-64
2021/04/26 13:40:10;;;;;;;5.08;2.10;;;;;;;9.98;34.00;100459.60;1809483;78;25657;-64
2021/04/26 13:42:38;;;;;;;5.90;2.20;;;;;;;9.59;34.59;100450.87;1809308;78;26228;-64
2021/04/26 13:45:07;;;;;;;3.45;2.15;;;;;;;9.30;35.38;100443.81;1811579;78;25686;-65
2021/04/26 13:47:34;;;;;;;4.15;2.00;;;;;;;9.08;35.74;100444.45;1776298;78;25748;-65
2021/04/26 13:50:03;;;;;;;3.10;1.90;;;;;;;8.97;36.49;100446.52;1804539;78;26212;-64
2021/04/26 13:52:30;;;;;;;3.30;2.20;;;;;;;8.89;37.20;100445.83;1807372;78;25666;-65
2021/04/26 13:54:57;;;;;;;4.53;2.40;;;;;;;8.73;37.92;100447.15;1805615;78;25649;-63
2021/04/26 13:57:23;;;;;;;4.10;2.42;;;;;;;8.51;38.07;100443.69;1804438;78;25662;-65
2021/04/26 13:59:50;;;;;;;4.17;2.37;;;;;;;8.38;39.21;100441.95;1786820;78;25692;-65
2021/04/26 14:02:22;;;;;;;6.80;2.30;;;;;;;8.35;38.93;100429.59;1792806;77;26386;-57
2021/04/26 14:04:53;;;;;;;4.75;2.60;;;;;;;8.30;39.16;100433.70;1790505;77;25976;-58
2021/04/26 14:07:23;;;;;;;5.20;1.90;;;;;;;8.40;39.02;100412.80;1819415;78;25572;-57
2021/04/26 14:09:50;;;;;;;3.37;2.15;;;;;;;8.40;37.92;100417.40;1816291;77;25707;-56
2021/04/26 14:12:17;;;;;;;5.60;2.08;;;;;;;8.28;37.41;100429.16;1798495;78;26234;-57
2021/04/26 14:14:46;;;;;;;3.90;1.95;;;;;;;8.13;37.63;100424.77;1826273;78;25758;-56
2021/04/26 14:17:13;;;;;;;4.40;2.17;;;;;;;8.02;36.90;100431.62;1826106;78;25615;-57
2021/04/26 14:19:39;;;;;;;6.58;2.50;;;;;;;7.91;36.82;100427.45;1826094;78;25615;-56
2021/04/26 14:22:07;;;;;;;4.20;2.30;;;;;;;7.81;37.14;100416.79;1826002;78;25705;-57
2021/04/26 14:24:34;;;;;;;8.85;5.65;;;;;;;7.75;37.36;100418.75;1826092;78;25666;-57
2021/04/26 14:27:00;;;;;;;22.93;10.55;;;;;;;7.69;37.83;100421.23;1826345;78;25752;-56
2021/04/26 14:29:27;;;;;;;32.13;12.65;;;;;;;7.64;38.35;100418.59;1798533;78;25699;-56
2021/04/26 14:31:54;;;;;;;17.65;8.78;;;;;;;7.61;38.48;100417.81;1826617;78;26236;-57
2021/04/26 14:34:21;;;;;;;4.20;2.95;;;;;;;7.55;38.85;100417.63;1826526;78;25627;-56
2021/04/26 14:36:47;;;;;;;4.72;3.12;;;;;;;7.51;39.29;100419.27;1826506;78;25621;-56
2021/04/26 14:39:14;;;;;;;5.28;3.40;;;;;;;7.54;39.67;100410.07;1826524;78;26331;-57
2021/04/26 14:41:41;;;;;;;3.15;2.55;;;;;;;7.75;40.42;100404.49;1800953;78;25699;-58
2021/04/26 14:44:09;;;;;;;3.60;2.20;;;;;;;7.96;39.66;100403.14;1797982;78;25583;-64
2021/04/26 14:46:36;;;;;;;3.37;2.30;;;;;;;8.12;39.97;100399.73;1794051;79;25601;-65
2021/04/26 14:49:04;;;;;;;2.98;2.70;;;;;;;8.17;39.62;100390.23;1802916;78;26296;-59
2021/04/26 14:51:31;;;;;;;4.60;2.92;;;;;;;8.16;40.93;100398.05;1806291;77;25745;-59
2021/04/26 14:53:57;;;;;;;6.20;3.27;;;;;;;8.21;41.36;100384.50;1806918;78;25480;-58
2021/04/26 14:56:24;;;;;;;8.08;2.95;;;;;;;8.34;40.57;100384.34;1826566;78;25602;-58
2021/04/26 14:58:50;;;;;;;2.90;2.60;;;;;;;8.50;41.30;100380.89;1826254;78;25729;-58
2021/04/26 15:01:17;;;;;;;3.75;2.60;;;;;;;8.60;40.65;100378.59;1826538;78;26192;-58
2021/04/26 15:03:44;;;;;;;4.75;3.00;;;;;;;8.60;40.73;100383.43;1826423;78;25749;-59
2021/04/26 15:06:10;;;;;;;4.55;2.50;;;;;;;8.54;40.70;100381.89;1791326;78;25584;-59
2021/04/26 15:08:37;;;;;;;5.30;3.05;;;;;;;8.47;39.95;100383.37;1817224;78;25821;-58
2021/04/26 15:11:04;;;;;;;6.25;3.17;;;;;;;8.36;41.00;100375.41;1817144;78;25652;-59
2021/04/26 15:13:31;;;;;;;5.70;3.25;;;;;;;8.28;40.61;100377.96;1817170;78;25628;-59
2021/04/26 15:15:58;;;;;;;3.92;2.65;;;;;;;8.16;40.36;100379.19;1787445;78;25849;-59
2021/04/26 15:18:24;;;;;;;5.33;2.65;;;;;;;8.06;40.45;100380.66;1784651;80;25630;-59
2021/04/26 15:20:52;;;;;;;4.37;3.52;;;;;;;8.03;41.39;100375.85;1783922;80;25686;-59
2021/04/26 15:23:18;;;;;;;4.30;2.87;;;;;;;8.02;41.75;100376.41;1784461;80;25674;-60
2021/04/26 15:25:45;;;;;;;3.33;2.75;;;;;;;8.05;41.41;100369.63;1784486;80;25601;-59
2021/04/26 15:28:14;;;;;;;4.67;3.05;;;;;;;8.12;41.36;100371.44;1784546;80;28064;-60
2021/04/26 15:30:43;;;;;;;4.53;2.75;;;;;;;8.09;40.40;100377.40;1784753;80;25712;-60
2021/04/26 15:33:12;;;;;;;3.87;2.72;;;;;;;8.10;40.50;100375.50;1784855;80;25676;-58
2021/04/26 15:35:41;;;;;;;4.22;2.80;;;;;;;8.12;39.44;100355.27;1755057;80;25620;-59
2021/04/26 15:38:10;;;;;;;5.53;2.85;;;;;;;8.06;39.20;100377.97;1784556;80;25667;-59
2021/04/26 15:40:41;;;;;;;4.33;2.67;;;;;;;8.01;39.55;100372.09;1755133;80;25759;-58
2021/04/26 15:43:10;;;;;;;3.22;2.17;;;;;;;8.00;40.04;100372.39;1784192;80;26219;-59
2021/04/26 15:45:38;;;;;;;2.40;2.20;;;;;;;7.98;39.82;100374.57;1785176;80;25699;-59
2021/04/26 15:48:07;;;;;;;4.20;2.72;;;;;;;7.95;39.57;100369.76;1784923;80;25653;-59
2021/04/26 15:50:34;;;;;;;3.33;2.10;;;;;;;7.93;39.86;100363.86;1785039;80;25696;-59
2021/04/26 15:53:00;;;;;;;7.60;2.20;;;;;;;7.91;39.95;100368.75;1754518;80;25705;-59
2021/04/26 15:55:29;;;;;;;3.12;2.08;;;;;;;7.89;39.78;100364.99;1784358;77;25806;-59
2021/04/26 15:57:59;;;;;;;5.03;2.50;;;;;;;7.88;39.76;100362.58;1783939;80;25683;-58
2021/04/26 16:00:27;;;;;;;4.03;2.00;;;;;;;7.82;38.40;100361.86;1784396;80;26424;-59
2021/04/26 16:02:54;;;;;;;4.03;2.27;;;;;;;7.76;38.85;100365.69;1784284;80;25830;-59
2021/04/26 16:05:21;;;;;;;4.37;2.27;;;;;;;7.74;39.13;100358.45;1784936;79;25994;-59
2021/04/26 16:07:48;;;;;;;4.28;2.62;;;;;;;7.69;39.11;100357.95;1793019;79;25636;-58
2021/04/26 16:10:15;;;;;;;3.12;2.22;;;;;;;7.65;39.32;100352.34;1793264;79;25804;-59
2021/04/26 16:12:42;;;;;;;3.42;2.20;;;;;;;7.58;39.59;100358.63;1793873;79;26322;-59
2021/04/26 16:15:10;;;;;;;2.27;2.00;;;;;;;7.54;39.51;100359.48;1793812;79;25590;-58
2021/04/26 16:17:37;;;;;;;3.87;2.08;;;;;;;7.46;40.65;100355.55;1793887;79;25842;-59
2021/04/26 16:20:07;;;;;;;4.40;2.37;;;;;;;7.39;40.60;100360.45;1793686;79;25616;-59
2021/04/26 16:22:35;;;;;;;3.37;2.50;;;;;;;7.31;41.28;100359.75;1793869;79;25724;-59
2021/04/26 16:25:04;;;;;;;4.65;2.80;;;;;;;7.22;41.51;100362.23;1793605;79;25580;-58
2021/04/26 16:27:31;;;;;;;2.50;2.00;;;;;;;7.08;42.23;100360.23;1767245;79;32536;-58
2021/04/26 16:29:59;;;;;;;3.92;2.12;;;;;;;6.96;42.13;100357.65;1793835;79;26623;-59
2021/04/26 16:32:26;;;;;;;2.62;2.05;;;;;;;6.85;42.61;100359.09;1793613;79;25652;-58
2021/04/26 16:34:53;;;;;;;2.85;1.92;;;;;;;6.72;42.56;100351.14;1793752;79;25614;-59
2021/04/26 16:37:21;;;;;;;7.90;2.70;;;;;;;6.63;42.85;100358.73;1793706;79;25561;-58
2021/04/26 16:39:49;;;;;;;4.20;2.30;;;;;;;6.57;43.31;100358.50;1793931;79;25672;-59
2021/04/26 16:42:18;;;;;;;2.85;2.20;;;;;;;6.51;44.03;100358.55;1793810;79;26296;-59
2021/04/26 16:47:40;;;;;;;3.72;2.12;;;;;;;6.41;43.42;100367.23;1598429;89;26014;-59
2021/04/26 16:50:11;;;;;;;3.50;2.58;;;;;;;6.32;44.04;100367.81;1629263;86;26331;-58
2021/04/26 16:52:40;;;;;;;5.22;2.72;;;;;;;6.32;44.07;100372.39;1652529;86;25727;-60
2021/04/26 16:55:09;;;;;;;5.20;3.70;;;;;;;6.31;44.23;100365.40;1600705;88;26866;-59
2021/04/26 16:57:37;;;;;;;8.08;4.00;;;;;;;6.29;45.23;100363.53;1653523;85;26007;-58
2021/04/26 17:00:10;;;;;;;12.37;5.22;;;;;;;6.22;45.81;100371.91;1670678;85;25688;-57
2021/04/26 17:02:38;;;;;;;12.55;6.20;;;;;;;6.14;46.83;100369.80;1655001;85;25609;-58
2021/04/26 17:05:08;;;;;;;9.73;5.40;;;;;;;6.02;47.31;100370.13;1659317;85;25626;-58
2021/04/26 17:07:34;;;;;;;14.83;8.20;;;;;;;5.92;47.51;100373.62;1651352;86;25861;-59
2021/04/26 17:10:04;;;;;;;9.35;5.67;;;;;;;5.84;48.03;100372.87;1666111;85;25814;-57
2021/04/26 17:12:39;;;;;;;9.45;5.80;;;;;;;5.79;49.03;100371.01;1828261;76;34768;-57
2021/04/26 17:15:10;;;;;;;8.83;5.30;;;;;;;5.61;49.37;100372.41;1787969;77;26273;-56
2021/04/26 17:17:37;;;;;;;10.98;5.08;;;;;;;5.50;49.10;100376.21;1753918;80;26831;-58